sensor_id;sensor_type;location;lat;lon;timestamp;P1;durP1;ratioP1;P2;durP2;ratioP2
38937;SDS011;24727;51.974;20.868;2022-12-08T00:00:49;19.27;;;9.85;;
38937;SDS011;24727;51.974;20.868;2022-12-08T00:03:15;17.77;;;9.68;;
38937;SDS011;24727;51.974;20.868;2022-12-08T00:05:45;18.52;;;10.50;;
38937;SDS011;24727;51.974;20.868;2022-12-08T00:08:31;17.85;;;9.77;;
38937;SDS011;24727;51.974;20.868;2022-12-08T00:11:16;16.35;;;9.52;;
38937;SDS011;24727;51.974;20.868;2022-12-08T00:13:44;18.38;;;9.43;;
38937;SDS011;24727;51.974;20.868;2022-12-08T00:16:11;17.75;;;10.45;;
38937;SDS011;24727;51.974;20.868;2022-12-08T00:18:37;15.93;;;9.07;;
38937;SDS011;24727;51.974;20.868;2022-12-08T00:21:03;17.42;;;9.35;;
38937;SDS011;24727;51.974;20.868;2022-12-08T00:23:29;17.15;;;8.77;;
38937;SDS011;24727;51.974;20.868;2022-12-08T00:26:01;18.17;;;9.55;;
38937;SDS011;24727;51.974;20.868;2022-12-08T00:30:54;21.52;;;10.18;;
38937;SDS011;24727;51.974;20.868;2022-12-08T00:33:20;23.80;;;10.15;;
38937;SDS011;24727;51.974;20.868;2022-12-08T00:35:48;20.45;;;10.82;;
38937;SDS011;24727;51.974;20.868;2022-12-08T00:38:14;24.70;;;11.60;;
38937;SDS011;24727;51.974;20.868;2022-12-08T00:40:44;24.48;;;11.20;;
38937;SDS011;24727;51.974;20.868;2022-12-08T00:43:11;27.65;;;12.82;;
38937;SDS011;24727;51.974;20.868;2022-12-08T00:45:39;23.50;;;12.27;;
38937;SDS011;24727;51.974;20.868;2022-12-08T00:48:05;24.02;;;13.48;;
38937;SDS011;24727;51.974;20.868;2022-12-08T00:50:44;18.73;;;10.13;;
38937;SDS011;24727;51.974;20.868;2022-12-08T00:53:10;17.58;;;10.02;;
38937;SDS011;24727;51.974;20.868;2022-12-08T00:55:37;19.15;;;10.38;;
38937;SDS011;24727;51.974;20.868;2022-12-08T00:58:04;18.05;;;9.70;;
38937;SDS011;24727;51.974;20.868;2022-12-08T01:00:30;15.10;;;9.73;;
38937;SDS011;24727;51.974;20.868;2022-12-08T01:02:56;18.65;;;10.50;;
38937;SDS011;24727;51.974;20.868;2022-12-08T01:05:22;29.08;;;13.10;;
38937;SDS011;24727;51.974;20.868;2022-12-08T01:07:49;33.15;;;15.25;;
38937;SDS011;24727;51.974;20.868;2022-12-08T01:10:15;28.95;;;14.93;;
38937;SDS011;24727;51.974;20.868;2022-12-08T01:12:41;25.05;;;12.23;;
38937;SDS011;24727;51.974;20.868;2022-12-08T01:15:13;33.78;;;16.38;;
38937;SDS011;24727;51.974;20.868;2022-12-08T01:17:39;31.15;;;15.45;;
38937;SDS011;24727;51.974;20.868;2022-12-08T01:20:06;28.20;;;14.32;;
38937;SDS011;24727;51.974;20.868;2022-12-08T01:22:34;26.10;;;13.73;;
38937;SDS011;24727;51.974;20.868;2022-12-08T01:25:01;32.35;;;13.93;;
38937;SDS011;24727;51.974;20.868;2022-12-08T01:27:28;29.67;;;14.00;;
38937;SDS011;24727;51.974;20.868;2022-12-08T01:29:56;33.72;;;16.38;;
38937;SDS011;24727;51.974;20.868;2022-12-08T01:34:53;23.15;;;12.80;;
38937;SDS011;24727;51.974;20.868;2022-12-08T01:39:49;19.98;;;9.55;;
38937;SDS011;24727;51.974;20.868;2022-12-08T01:42:18;20.60;;;11.75;;
38937;SDS011;24727;51.974;20.868;2022-12-08T01:47:37;21.92;;;9.65;;
38937;SDS011;24727;51.974;20.868;2022-12-08T01:50:09;21.55;;;10.02;;
38937;SDS011;24727;51.974;20.868;2022-12-08T01:52:48;16.17;;;8.57;;
38937;SDS011;24727;51.974;20.868;2022-12-08T01:55:20;18.02;;;9.48;;
38937;SDS011;24727;51.974;20.868;2022-12-08T01:57:55;16.15;;;8.32;;
38937;SDS011;24727;51.974;20.868;2022-12-08T02:00:27;22.42;;;9.82;;
38937;SDS011;24727;51.974;20.868;2022-12-08T02:02:56;14.43;;;8.93;;
38937;SDS011;24727;51.974;20.868;2022-12-08T02:05:27;14.07;;;8.43;;
38937;SDS011;24727;51.974;20.868;2022-12-08T02:07:56;16.35;;;8.40;;
38937;SDS011;24727;51.974;20.868;2022-12-08T02:10:27;16.23;;;8.88;;
38937;SDS011;24727;51.974;20.868;2022-12-08T02:12:55;17.98;;;9.02;;
38937;SDS011;24727;51.974;20.868;2022-12-08T02:15:25;18.25;;;8.88;;
38937;SDS011;24727;51.974;20.868;2022-12-08T02:18:07;18.73;;;9.13;;
38937;SDS011;24727;51.974;20.868;2022-12-08T02:26:47;17.80;;;9.27;;
38937;SDS011;24727;51.974;20.868;2022-12-08T02:32:40;15.55;;;9.00;;
38937;SDS011;24727;51.974;20.868;2022-12-08T02:43:31;16.17;;;7.88;;
38937;SDS011;24727;51.974;20.868;2022-12-08T02:46:07;17.92;;;8.68;;
38937;SDS011;24727;51.974;20.868;2022-12-08T02:48:43;14.95;;;7.60;;
38937;SDS011;24727;51.974;20.868;2022-12-08T02:51:10;15.35;;;7.43;;
38937;SDS011;24727;51.974;20.868;2022-12-08T02:53:36;16.10;;;8.05;;
38937;SDS011;24727;51.974;20.868;2022-12-08T02:58:53;13.02;;;6.82;;
38937;SDS011;24727;51.974;20.868;2022-12-08T03:07:37;16.88;;;5.95;;
38937;SDS011;24727;51.974;20.868;2022-12-08T03:13:03;13.45;;;6.07;;
38937;SDS011;24727;51.974;20.868;2022-12-08T03:17:59;13.30;;;5.45;;
38937;SDS011;24727;51.974;20.868;2022-12-08T03:20:26;17.25;;;6.47;;
38937;SDS011;24727;51.974;20.868;2022-12-08T03:22:55;16.50;;;6.95;;
38937;SDS011;24727;51.974;20.868;2022-12-08T03:25:26;15.38;;;6.78;;
38937;SDS011;24727;51.974;20.868;2022-12-08T03:27:57;16.40;;;8.50;;
38937;SDS011;24727;51.974;20.868;2022-12-08T03:30:24;15.48;;;7.07;;
38937;SDS011;24727;51.974;20.868;2022-12-08T03:33:00;14.93;;;6.25;;
38937;SDS011;24727;51.974;20.868;2022-12-08T03:35:32;17.40;;;9.05;;
38937;SDS011;24727;51.974;20.868;2022-12-08T03:38:13;18.08;;;7.22;;
38937;SDS011;24727;51.974;20.868;2022-12-08T03:40:41;16.63;;;7.63;;
38937;SDS011;24727;51.974;20.868;2022-12-08T03:43:07;14.70;;;6.72;;
38937;SDS011;24727;51.974;20.868;2022-12-08T03:45:34;15.15;;;6.03;;
38937;SDS011;24727;51.974;20.868;2022-12-08T03:47:59;9.80;;;5.78;;
38937;SDS011;24727;51.974;20.868;2022-12-08T03:50:26;15.25;;;5.90;;
38937;SDS011;24727;51.974;20.868;2022-12-08T03:52:52;13.50;;;5.38;;
38937;SDS011;24727;51.974;20.868;2022-12-08T03:55:18;10.10;;;5.55;;
38937;SDS011;24727;51.974;20.868;2022-12-08T03:57:45;13.68;;;5.93;;
38937;SDS011;24727;51.974;20.868;2022-12-08T04:00:12;12.30;;;6.10;;
38937;SDS011;24727;51.974;20.868;2022-12-08T04:02:40;14.77;;;6.72;;
38937;SDS011;24727;51.974;20.868;2022-12-08T04:05:08;14.85;;;5.90;;
38937;SDS011;24727;51.974;20.868;2022-12-08T04:07:34;14.52;;;6.45;;
38937;SDS011;24727;51.974;20.868;2022-12-08T04:10:01;10.30;;;5.55;;
38937;SDS011;24727;51.974;20.868;2022-12-08T04:12:28;11.57;;;6.55;;
38937;SDS011;24727;51.974;20.868;2022-12-08T04:14:55;15.25;;;6.88;;
38937;SDS011;24727;51.974;20.868;2022-12-08T04:17:21;18.05;;;8.77;;
38937;SDS011;24727;51.974;20.868;2022-12-08T04:19:47;24.63;;;10.50;;
38937;SDS011;24727;51.974;20.868;2022-12-08T04:22:13;24.55;;;10.27;;
38937;SDS011;24727;51.974;20.868;2022-12-08T04:24:39;28.08;;;10.88;;
38937;SDS011;24727;51.974;20.868;2022-12-08T04:27:04;19.15;;;8.65;;
38937;SDS011;24727;51.974;20.868;2022-12-08T04:29:36;19.25;;;8.68;;
38937;SDS011;24727;51.974;20.868;2022-12-08T04:32:09;16.48;;;7.53;;
38937;SDS011;24727;51.974;20.868;2022-12-08T04:34:34;16.23;;;6.85;;
38937;SDS011;24727;51.974;20.868;2022-12-08T04:37:02;15.18;;;7.07;;
38937;SDS011;24727;51.974;20.868;2022-12-08T04:39:28;17.55;;;8.10;;
38937;SDS011;24727;51.974;20.868;2022-12-08T04:41:55;12.75;;;6.50;;
38937;SDS011;24727;51.974;20.868;2022-12-08T04:44:21;14.35;;;7.20;;
38937;SDS011;24727;51.974;20.868;2022-12-08T04:46:47;10.38;;;6.22;;
38937;SDS011;24727;51.974;20.868;2022-12-08T04:49:13;11.00;;;5.97;;
38937;SDS011;24727;51.974;20.868;2022-12-08T04:51:40;14.60;;;6.75;;
38937;SDS011;24727;51.974;20.868;2022-12-08T04:54:06;10.75;;;6.45;;
38937;SDS011;24727;51.974;20.868;2022-12-08T04:56:32;16.42;;;6.45;;
38937;SDS011;24727;51.974;20.868;2022-12-08T04:58:58;15.88;;;6.22;;
38937;SDS011;24727;51.974;20.868;2022-12-08T05:01:24;17.48;;;7.03;;
38937;SDS011;24727;51.974;20.868;2022-12-08T05:03:50;11.85;;;6.35;;
38937;SDS011;24727;51.974;20.868;2022-12-08T05:06:22;14.85;;;6.35;;
38937;SDS011;24727;51.974;20.868;2022-12-08T05:11:16;12.68;;;6.85;;
38937;SDS011;24727;51.974;20.868;2022-12-08T05:13:43;14.73;;;7.05;;
38937;SDS011;24727;51.974;20.868;2022-12-08T05:16:10;12.20;;;6.75;;
38937;SDS011;24727;51.974;20.868;2022-12-08T05:18:38;14.52;;;7.07;;
38937;SDS011;24727;51.974;20.868;2022-12-08T05:21:05;14.13;;;7.50;;
38937;SDS011;24727;51.974;20.868;2022-12-08T05:23:33;14.95;;;7.40;;
38937;SDS011;24727;51.974;20.868;2022-12-08T05:25:59;15.07;;;8.25;;
38937;SDS011;24727;51.974;20.868;2022-12-08T05:28:26;15.40;;;8.93;;
38937;SDS011;24727;51.974;20.868;2022-12-08T05:30:52;17.92;;;7.57;;
38937;SDS011;24727;51.974;20.868;2022-12-08T05:33:18;18.05;;;8.00;;
38937;SDS011;24727;51.974;20.868;2022-12-08T05:35:44;18.70;;;8.45;;
38937;SDS011;24727;51.974;20.868;2022-12-08T05:38:11;13.60;;;7.28;;
38937;SDS011;24727;51.974;20.868;2022-12-08T05:40:43;13.40;;;6.93;;
38937;SDS011;24727;51.974;20.868;2022-12-08T05:43:09;12.80;;;6.63;;
38937;SDS011;24727;51.974;20.868;2022-12-08T05:45:35;16.50;;;7.93;;
38937;SDS011;24727;51.974;20.868;2022-12-08T05:48:01;16.10;;;8.00;;
38937;SDS011;24727;51.974;20.868;2022-12-08T05:50:28;14.32;;;7.00;;
38937;SDS011;24727;51.974;20.868;2022-12-08T05:52:55;13.65;;;7.38;;
38937;SDS011;24727;51.974;20.868;2022-12-08T05:55:21;16.55;;;7.25;;
38937;SDS011;24727;51.974;20.868;2022-12-08T05:57:47;12.90;;;6.90;;
38937;SDS011;24727;51.974;20.868;2022-12-08T06:00:12;15.45;;;6.88;;
38937;SDS011;24727;51.974;20.868;2022-12-08T06:02:39;15.68;;;7.60;;
38937;SDS011;24727;51.974;20.868;2022-12-08T06:05:05;14.90;;;8.15;;
38937;SDS011;24727;51.974;20.868;2022-12-08T06:07:33;16.58;;;7.43;;
38937;SDS011;24727;51.974;20.868;2022-12-08T06:09:59;15.77;;;8.18;;
38937;SDS011;24727;51.974;20.868;2022-12-08T06:12:25;19.52;;;8.57;;
38937;SDS011;24727;51.974;20.868;2022-12-08T06:14:53;18.92;;;8.13;;
38937;SDS011;24727;51.974;20.868;2022-12-08T06:17:19;16.63;;;8.40;;
38937;SDS011;24727;51.974;20.868;2022-12-08T06:19:45;15.52;;;7.55;;
38937;SDS011;24727;51.974;20.868;2022-12-08T06:22:17;18.73;;;8.18;;
38937;SDS011;24727;51.974;20.868;2022-12-08T06:24:43;20.60;;;7.75;;
38937;SDS011;24727;51.974;20.868;2022-12-08T06:27:09;15.38;;;7.05;;
38937;SDS011;24727;51.974;20.868;2022-12-08T06:29:36;18.80;;;7.65;;
38937;SDS011;24727;51.974;20.868;2022-12-08T06:32:02;16.30;;;7.38;;
38937;SDS011;24727;51.974;20.868;2022-12-08T06:34:29;17.50;;;8.23;;
38937;SDS011;24727;51.974;20.868;2022-12-08T06:36:56;13.85;;;7.05;;
38937;SDS011;24727;51.974;20.868;2022-12-08T06:39:24;16.95;;;6.93;;
38937;SDS011;24727;51.974;20.868;2022-12-08T06:41:51;14.90;;;7.38;;
38937;SDS011;24727;51.974;20.868;2022-12-08T06:44:36;14.88;;;7.13;;
38937;SDS011;24727;51.974;20.868;2022-12-08T06:47:03;15.52;;;7.63;;
38937;SDS011;24727;51.974;20.868;2022-12-08T06:49:29;18.02;;;7.10;;
38937;SDS011;24727;51.974;20.868;2022-12-08T06:51:56;14.45;;;6.20;;
38937;SDS011;24727;51.974;20.868;2022-12-08T06:54:22;14.02;;;6.05;;
38937;SDS011;24727;51.974;20.868;2022-12-08T06:56:48;13.65;;;6.32;;
38937;SDS011;24727;51.974;20.868;2022-12-08T06:59:15;11.45;;;6.18;;
38937;SDS011;24727;51.974;20.868;2022-12-08T07:01:44;12.23;;;6.65;;
38937;SDS011;24727;51.974;20.868;2022-12-08T07:04:10;15.13;;;6.97;;
38937;SDS011;24727;51.974;20.868;2022-12-08T07:06:45;13.65;;;5.95;;
38937;SDS011;24727;51.974;20.868;2022-12-08T07:09:11;14.30;;;6.45;;
38937;SDS011;24727;51.974;20.868;2022-12-08T07:11:38;13.85;;;6.57;;
38937;SDS011;24727;51.974;20.868;2022-12-08T07:14:05;16.35;;;6.88;;
38937;SDS011;24727;51.974;20.868;2022-12-08T07:16:31;12.45;;;7.10;;
38937;SDS011;24727;51.974;20.868;2022-12-08T07:18:58;21.15;;;7.93;;
38937;SDS011;24727;51.974;20.868;2022-12-08T07:21:30;14.07;;;6.95;;
38937;SDS011;24727;51.974;20.868;2022-12-08T07:23:57;15.68;;;7.05;;
38937;SDS011;24727;51.974;20.868;2022-12-08T07:26:23;22.73;;;7.90;;
38937;SDS011;24727;51.974;20.868;2022-12-08T07:28:49;17.67;;;7.88;;
38937;SDS011;24727;51.974;20.868;2022-12-08T07:33:45;16.73;;;8.25;;
38937;SDS011;24727;51.974;20.868;2022-12-08T07:36:12;10.98;;;5.57;;
38937;SDS011;24727;51.974;20.868;2022-12-08T07:38:38;14.35;;;6.93;;
38937;SDS011;24727;51.974;20.868;2022-12-08T07:41:04;17.98;;;8.00;;
38937;SDS011;24727;51.974;20.868;2022-12-08T07:43:37;13.23;;;6.72;;
38937;SDS011;24727;51.974;20.868;2022-12-08T07:46:13;14.38;;;8.63;;
38937;SDS011;24727;51.974;20.868;2022-12-08T07:48:41;18.77;;;7.70;;
38937;SDS011;24727;51.974;20.868;2022-12-08T07:51:07;11.77;;;5.68;;
38937;SDS011;24727;51.974;20.868;2022-12-08T07:53:34;16.60;;;8.18;;
38937;SDS011;24727;51.974;20.868;2022-12-08T07:56:04;26.05;;;9.00;;
38937;SDS011;24727;51.974;20.868;2022-12-08T07:58:33;16.48;;;7.50;;
38937;SDS011;24727;51.974;20.868;2022-12-08T08:00:59;20.05;;;8.70;;
38937;SDS011;24727;51.974;20.868;2022-12-08T08:03:25;18.35;;;9.25;;
38937;SDS011;24727;51.974;20.868;2022-12-08T08:05:51;15.52;;;7.43;;
38937;SDS011;24727;51.974;20.868;2022-12-08T08:08:18;20.80;;;9.00;;
38937;SDS011;24727;51.974;20.868;2022-12-08T08:10:47;20.63;;;9.43;;
38937;SDS011;24727;51.974;20.868;2022-12-08T08:13:12;16.75;;;7.15;;
38937;SDS011;24727;51.974;20.868;2022-12-08T08:15:38;23.60;;;9.30;;
38937;SDS011;24727;51.974;20.868;2022-12-08T08:18:06;22.17;;;9.73;;
38937;SDS011;24727;51.974;20.868;2022-12-08T08:20:33;21.80;;;9.50;;
38937;SDS011;24727;51.974;20.868;2022-12-08T08:22:59;12.75;;;6.28;;
38937;SDS011;24727;51.974;20.868;2022-12-08T08:25:26;20.83;;;10.02;;
38937;SDS011;24727;51.974;20.868;2022-12-08T08:27:52;14.32;;;6.85;;
38937;SDS011;24727;51.974;20.868;2022-12-08T08:30:19;18.25;;;8.93;;
38937;SDS011;24727;51.974;20.868;2022-12-08T08:32:46;18.00;;;8.52;;
38937;SDS011;24727;51.974;20.868;2022-12-08T08:35:13;20.30;;;8.98;;
38937;SDS011;24727;51.974;20.868;2022-12-08T08:37:39;19.27;;;9.75;;
38937;SDS011;24727;51.974;20.868;2022-12-08T08:40:05;31.17;;;10.15;;
38937;SDS011;24727;51.974;20.868;2022-12-08T08:42:32;20.95;;;9.82;;
38937;SDS011;24727;51.974;20.868;2022-12-08T08:44:58;13.20;;;7.03;;
38937;SDS011;24727;51.974;20.868;2022-12-08T08:47:24;13.00;;;7.57;;
38937;SDS011;24727;51.974;20.868;2022-12-08T08:49:49;16.45;;;7.60;;
38937;SDS011;24727;51.974;20.868;2022-12-08T08:52:16;24.80;;;9.43;;
38937;SDS011;24727;51.974;20.868;2022-12-08T08:54:42;16.25;;;8.18;;
38937;SDS011;24727;51.974;20.868;2022-12-08T08:57:09;16.85;;;9.88;;
38937;SDS011;24727;51.974;20.868;2022-12-08T08:59:35;20.50;;;9.70;;
38937;SDS011;24727;51.974;20.868;2022-12-08T09:02:02;18.55;;;10.50;;
38937;SDS011;24727;51.974;20.868;2022-12-08T09:04:28;14.50;;;7.45;;
38937;SDS011;24727;51.974;20.868;2022-12-08T09:06:53;17.20;;;8.50;;
38937;SDS011;24727;51.974;20.868;2022-12-08T09:09:19;24.52;;;11.38;;
38937;SDS011;24727;51.974;20.868;2022-12-08T09:11:46;23.33;;;13.88;;
38937;SDS011;24727;51.974;20.868;2022-12-08T09:14:13;29.02;;;15.20;;
38937;SDS011;24727;51.974;20.868;2022-12-08T09:16:39;27.55;;;14.85;;
38937;SDS011;24727;51.974;20.868;2022-12-08T09:19:06;26.90;;;14.10;;
38937;SDS011;24727;51.974;20.868;2022-12-08T09:21:32;24.52;;;13.90;;
38937;SDS011;24727;51.974;20.868;2022-12-08T09:23:58;28.45;;;15.35;;
38937;SDS011;24727;51.974;20.868;2022-12-08T09:26:26;17.42;;;10.35;;
38937;SDS011;24727;51.974;20.868;2022-12-08T09:28:54;16.52;;;9.70;;
38937;SDS011;24727;51.974;20.868;2022-12-08T09:31:21;27.70;;;14.40;;
38937;SDS011;24727;51.974;20.868;2022-12-08T09:33:49;22.25;;;12.00;;
38937;SDS011;24727;51.974;20.868;2022-12-08T09:36:24;23.27;;;11.73;;
38937;SDS011;24727;51.974;20.868;2022-12-08T09:38:50;27.10;;;14.68;;
38937;SDS011;24727;51.974;20.868;2022-12-08T09:41:33;34.58;;;14.65;;
38937;SDS011;24727;51.974;20.868;2022-12-08T09:44:19;26.13;;;13.02;;
38937;SDS011;24727;51.974;20.868;2022-12-08T09:46:50;26.23;;;13.50;;
38937;SDS011;24727;51.974;20.868;2022-12-08T09:49:18;25.90;;;14.07;;
38937;SDS011;24727;51.974;20.868;2022-12-08T09:51:48;25.83;;;13.05;;
38937;SDS011;24727;51.974;20.868;2022-12-08T09:56:46;17.80;;;9.10;;
38937;SDS011;24727;51.974;20.868;2022-12-08T09:59:24;28.27;;;14.13;;
38937;SDS011;24727;51.974;20.868;2022-12-08T10:01:59;24.70;;;13.93;;
38937;SDS011;24727;51.974;20.868;2022-12-08T10:04:36;21.73;;;10.73;;
38937;SDS011;24727;51.974;20.868;2022-12-08T10:14:57;33.88;;;16.52;;
38937;SDS011;24727;51.974;20.868;2022-12-08T10:20:02;35.08;;;17.17;;
38937;SDS011;24727;51.974;20.868;2022-12-08T10:22:49;34.93;;;14.63;;
38937;SDS011;24727;51.974;20.868;2022-12-08T10:25:34;34.00;;;17.45;;
38937;SDS011;24727;51.974;20.868;2022-12-08T10:28:05;37.45;;;18.88;;
38937;SDS011;24727;51.974;20.868;2022-12-08T10:30:34;28.52;;;14.95;;
38937;SDS011;24727;51.974;20.868;2022-12-08T10:33:00;32.70;;;17.17;;
38937;SDS011;24727;51.974;20.868;2022-12-08T10:35:49;28.55;;;15.43;;
38937;SDS011;24727;51.974;20.868;2022-12-08T10:38:31;33.30;;;17.05;;
38937;SDS011;24727;51.974;20.868;2022-12-08T10:43:31;24.45;;;13.75;;
38937;SDS011;24727;51.974;20.868;2022-12-08T10:46:18;36.58;;;17.25;;
38937;SDS011;24727;51.974;20.868;2022-12-08T10:48:47;31.42;;;17.50;;
38937;SDS011;24727;51.974;20.868;2022-12-08T10:51:28;24.40;;;14.38;;
38937;SDS011;24727;51.974;20.868;2022-12-08T10:53:59;25.30;;;14.80;;
38937;SDS011;24727;51.974;20.868;2022-12-08T10:56:26;31.90;;;16.30;;
38937;SDS011;24727;51.974;20.868;2022-12-08T11:01:47;31.98;;;16.88;;
38937;SDS011;24727;51.974;20.868;2022-12-08T11:06:59;22.80;;;11.25;;
38937;SDS011;24727;51.974;20.868;2022-12-08T11:09:42;35.33;;;18.77;;
38937;SDS011;24727;51.974;20.868;2022-12-08T11:14:47;25.13;;;13.40;;
38937;SDS011;24727;51.974;20.868;2022-12-08T11:23:00;28.38;;;15.95;;
38937;SDS011;24727;51.974;20.868;2022-12-08T11:25:28;31.38;;;16.30;;
38937;SDS011;24727;51.974;20.868;2022-12-08T11:27:59;22.30;;;12.57;;
38937;SDS011;24727;51.974;20.868;2022-12-08T11:30:32;34.28;;;19.15;;
38937;SDS011;24727;51.974;20.868;2022-12-08T11:33:05;32.72;;;17.25;;
38937;SDS011;24727;51.974;20.868;2022-12-08T11:35:38;23.67;;;13.85;;
38937;SDS011;24727;51.974;20.868;2022-12-08T11:38:10;29.92;;;16.80;;
38937;SDS011;24727;51.974;20.868;2022-12-08T11:40:45;33.33;;;17.77;;
38937;SDS011;24727;51.974;20.868;2022-12-08T11:46:00;24.88;;;14.77;;
38937;SDS011;24727;51.974;20.868;2022-12-08T11:51:14;33.35;;;19.13;;
38937;SDS011;24727;51.974;20.868;2022-12-08T11:56:41;34.08;;;18.45;;
38937;SDS011;24727;51.974;20.868;2022-12-08T12:01:49;31.40;;;16.77;;
38937;SDS011;24727;51.974;20.868;2022-12-08T12:04:21;31.25;;;16.55;;
38937;SDS011;24727;51.974;20.868;2022-12-08T12:15:22;33.38;;;19.45;;
38937;SDS011;24727;51.974;20.868;2022-12-08T12:21:55;31.50;;;18.48;;
38937;SDS011;24727;51.974;20.868;2022-12-08T12:27:02;42.53;;;22.13;;
38937;SDS011;24727;51.974;20.868;2022-12-08T12:29:51;32.72;;;18.13;;
38937;SDS011;24727;51.974;20.868;2022-12-08T12:32:24;38.65;;;21.27;;
38937;SDS011;24727;51.974;20.868;2022-12-08T12:34:52;20.48;;;12.85;;
38937;SDS011;24727;51.974;20.868;2022-12-08T12:37:38;30.55;;;16.55;;
38937;SDS011;24727;51.974;20.868;2022-12-08T12:40:17;35.40;;;20.15;;
38937;SDS011;24727;51.974;20.868;2022-12-08T12:45:35;36.40;;;22.70;;
38937;SDS011;24727;51.974;20.868;2022-12-08T12:48:12;39.90;;;22.85;;
38937;SDS011;24727;51.974;20.868;2022-12-08T12:50:46;31.25;;;18.75;;
38937;SDS011;24727;51.974;20.868;2022-12-08T13:07:05;31.88;;;16.38;;
38937;SDS011;24727;51.974;20.868;2022-12-08T13:09:36;24.20;;;13.82;;
38937;SDS011;24727;51.974;20.868;2022-12-08T13:12:09;32.60;;;19.05;;
38937;SDS011;24727;51.974;20.868;2022-12-08T13:14:44;38.70;;;20.08;;
38937;SDS011;24727;51.974;20.868;2022-12-08T13:17:16;31.88;;;18.33;;
38937;SDS011;24727;51.974;20.868;2022-12-08T13:28:24;35.85;;;19.83;;
38937;SDS011;24727;51.974;20.868;2022-12-08T13:30:54;36.90;;;18.75;;
38937;SDS011;24727;51.974;20.868;2022-12-08T13:33:30;34.42;;;18.88;;
38937;SDS011;24727;51.974;20.868;2022-12-08T13:38:37;34.08;;;18.92;;
38937;SDS011;24727;51.974;20.868;2022-12-08T13:41:16;36.65;;;18.38;;
38937;SDS011;24727;51.974;20.868;2022-12-08T13:43:47;40.78;;;17.38;;
38937;SDS011;24727;51.974;20.868;2022-12-08T13:46:48;29.02;;;16.92;;
38937;SDS011;24727;51.974;20.868;2022-12-08T13:49:33;32.95;;;18.42;;
38937;SDS011;24727;51.974;20.868;2022-12-08T13:52:12;29.17;;;16.33;;
38937;SDS011;24727;51.974;20.868;2022-12-08T13:54:53;29.42;;;16.33;;
38937;SDS011;24727;51.974;20.868;2022-12-08T13:57:34;31.27;;;15.77;;
38937;SDS011;24727;51.974;20.868;2022-12-08T14:00:04;28.90;;;15.82;;
38937;SDS011;24727;51.974;20.868;2022-12-08T14:02:33;26.67;;;14.52;;
38937;SDS011;24727;51.974;20.868;2022-12-08T14:05:03;24.77;;;14.35;;
38937;SDS011;24727;51.974;20.868;2022-12-08T14:10:27;40.30;;;20.60;;
38937;SDS011;24727;51.974;20.868;2022-12-08T14:12:59;40.55;;;20.45;;
38937;SDS011;24727;51.974;20.868;2022-12-08T14:15:28;31.60;;;17.67;;
38937;SDS011;24727;51.974;20.868;2022-12-08T14:17:57;28.85;;;17.13;;
38937;SDS011;24727;51.974;20.868;2022-12-08T14:20:29;30.52;;;17.20;;
38937;SDS011;24727;51.974;20.868;2022-12-08T14:22:57;27.10;;;16.02;;
38937;SDS011;24727;51.974;20.868;2022-12-08T14:25:26;28.40;;;15.73;;
38937;SDS011;24727;51.974;20.868;2022-12-08T14:28:00;32.45;;;17.52;;
38937;SDS011;24727;51.974;20.868;2022-12-08T14:30:33;24.55;;;13.95;;
38937;SDS011;24727;51.974;20.868;2022-12-08T14:33:01;31.77;;;16.75;;
38937;SDS011;24727;51.974;20.868;2022-12-08T14:35:33;35.97;;;19.10;;
38937;SDS011;24727;51.974;20.868;2022-12-08T14:38:03;35.47;;;20.08;;
38937;SDS011;24727;51.974;20.868;2022-12-08T14:40:35;35.08;;;21.10;;
38937;SDS011;24727;51.974;20.868;2022-12-08T14:48:20;47.63;;;21.02;;
38937;SDS011;24727;51.974;20.868;2022-12-08T14:53:21;44.38;;;21.45;;
38937;SDS011;24727;51.974;20.868;2022-12-08T14:55:48;41.75;;;20.30;;
38937;SDS011;24727;51.974;20.868;2022-12-08T14:58:16;38.15;;;20.58;;
38937;SDS011;24727;51.974;20.868;2022-12-08T15:00:48;37.70;;;18.50;;
38937;SDS011;24727;51.974;20.868;2022-12-08T15:03:16;40.80;;;19.33;;
38937;SDS011;24727;51.974;20.868;2022-12-08T15:05:49;33.35;;;17.13;;
38937;SDS011;24727;51.974;20.868;2022-12-08T15:08:18;44.95;;;22.42;;
38937;SDS011;24727;51.974;20.868;2022-12-08T15:10:44;55.70;;;31.00;;
38937;SDS011;24727;51.974;20.868;2022-12-08T15:15:45;36.22;;;20.17;;
38937;SDS011;24727;51.974;20.868;2022-12-08T15:18:28;49.97;;;28.38;;
38937;SDS011;24727;51.974;20.868;2022-12-08T15:21:03;49.80;;;27.33;;
38937;SDS011;24727;51.974;20.868;2022-12-08T15:23:43;35.42;;;22.38;;
38937;SDS011;24727;51.974;20.868;2022-12-08T15:26:25;82.30;;;43.50;;
38937;SDS011;24727;51.974;20.868;2022-12-08T15:28:53;50.22;;;29.42;;
38937;SDS011;24727;51.974;20.868;2022-12-08T15:31:21;34.63;;;18.45;;
38937;SDS011;24727;51.974;20.868;2022-12-08T15:33:47;39.35;;;20.05;;
38937;SDS011;24727;51.974;20.868;2022-12-08T15:36:14;39.13;;;21.90;;
38937;SDS011;24727;51.974;20.868;2022-12-08T15:38:41;40.47;;;20.95;;
38937;SDS011;24727;51.974;20.868;2022-12-08T15:41:09;57.80;;;31.40;;
38937;SDS011;24727;51.974;20.868;2022-12-08T15:43:35;44.38;;;23.15;;
38937;SDS011;24727;51.974;20.868;2022-12-08T15:46:01;46.47;;;22.60;;
38937;SDS011;24727;51.974;20.868;2022-12-08T15:48:29;44.67;;;20.40;;
38937;SDS011;24727;51.974;20.868;2022-12-08T15:50:55;39.95;;;19.40;;
38937;SDS011;24727;51.974;20.868;2022-12-08T15:53:22;41.10;;;21.77;;
38937;SDS011;24727;51.974;20.868;2022-12-08T15:55:49;42.83;;;20.45;;
38937;SDS011;24727;51.974;20.868;2022-12-08T15:58:25;35.65;;;19.00;;
38937;SDS011;24727;51.974;20.868;2022-12-08T16:00:52;38.22;;;20.02;;
38937;SDS011;24727;51.974;20.868;2022-12-08T16:03:26;35.65;;;18.95;;
38937;SDS011;24727;51.974;20.868;2022-12-08T16:05:54;40.85;;;20.95;;
38937;SDS011;24727;51.974;20.868;2022-12-08T16:08:26;37.00;;;19.85;;
38937;SDS011;24727;51.974;20.868;2022-12-08T16:10:54;34.50;;;18.92;;
38937;SDS011;24727;51.974;20.868;2022-12-08T16:13:42;39.72;;;19.13;;
38937;SDS011;24727;51.974;20.868;2022-12-08T16:16:27;37.80;;;18.52;;
38937;SDS011;24727;51.974;20.868;2022-12-08T16:18:55;31.88;;;17.52;;
38937;SDS011;24727;51.974;20.868;2022-12-08T16:21:21;33.22;;;16.55;;
38937;SDS011;24727;51.974;20.868;2022-12-08T16:23:48;30.30;;;16.80;;
38937;SDS011;24727;51.974;20.868;2022-12-08T16:26:16;29.67;;;15.68;;
38937;SDS011;24727;51.974;20.868;2022-12-08T16:31:13;35.13;;;17.10;;
38937;SDS011;24727;51.974;20.868;2022-12-08T16:33:40;25.92;;;14.30;;
38937;SDS011;24727;51.974;20.868;2022-12-08T16:36:08;27.88;;;14.65;;
38937;SDS011;24727;51.974;20.868;2022-12-08T16:38:35;25.30;;;14.57;;
38937;SDS011;24727;51.974;20.868;2022-12-08T16:41:02;25.83;;;14.52;;
38937;SDS011;24727;51.974;20.868;2022-12-08T16:43:48;27.08;;;14.82;;
38937;SDS011;24727;51.974;20.868;2022-12-08T16:46:19;27.83;;;14.52;;
38937;SDS011;24727;51.974;20.868;2022-12-08T16:48:50;28.45;;;15.57;;
38937;SDS011;24727;51.974;20.868;2022-12-08T16:51:16;27.00;;;14.70;;
38937;SDS011;24727;51.974;20.868;2022-12-08T16:53:43;23.83;;;13.68;;
38937;SDS011;24727;51.974;20.868;2022-12-08T16:56:14;25.05;;;14.55;;